Terminal Aerodrome Forecast
Issued by NWS Charleston, WV

Current Version | Previous Version | Graphics & Text | Print | Product List | Glossary On
Versions: 1 2 3 4 5 6 7 8 9 10 11 12 13 14 15 16 17 18 19 20 21 22 23 24 25 26
000
FTUS41 KRLX 212300 RRA
TAFPKB
TAF
KPKB 212348Z 2200/2224 33006KT P6SM OVC035
      TEMPO 2200/2203 OVC025
     FM220300 30006KT P6SM OVC025
     FM220500 31006KT P6SM OVC015
     FM221600 34007KT P6SM BKN025
     FM221900 34007KT P6SM BKN035=

USA.gov is the U.S. government's official web portal to all federal, state and local government web resources and services.